sensor_id;sensor_type;location;lat;lon;timestamp;pressure;altitude;pressure_sealevel;temperature;humidity
12963;BME280;6546;49.882;8.666;2023-05-29T00:00:58;100165.44;;;17.93;45.19
12963;BME280;6546;49.882;8.666;2023-05-29T00:03:25;100158.41;;;17.87;45.37
12963;BME280;6546;49.882;8.666;2023-05-29T00:05:51;100170.03;;;17.91;44.42
12963;BME280;6546;49.882;8.666;2023-05-29T00:08:18;100164.63;;;17.86;44.75
12963;BME280;6546;49.882;8.666;2023-05-29T00:10:46;100164.84;;;17.77;45.08
12963;BME280;6546;49.882;8.666;2023-05-29T00:13:12;100173.34;;;17.66;46.28
12963;BME280;6546;49.882;8.666;2023-05-29T00:15:39;100175.19;;;17.59;46.47
12963;BME280;6546;49.882;8.666;2023-05-29T00:18:06;100167.31;;;17.53;46.84
12963;BME280;6546;49.882;8.666;2023-05-29T00:20:32;100172.34;;;17.54;47.05
12963;BME280;6546;49.882;8.666;2023-05-29T00:22:59;100167.13;;;17.48;46.73
12963;BME280;6546;49.882;8.666;2023-05-29T00:25:27;100165.09;;;17.43;47.29
12963;BME280;6546;49.882;8.666;2023-05-29T00:27:55;100162.31;;;17.38;46.88
12963;BME280;6546;49.882;8.666;2023-05-29T00:30:21;100155.06;;;17.33;47.26
12963;BME280;6546;49.882;8.666;2023-05-29T00:32:48;100153.25;;;17.27;47.46
12963;BME280;6546;49.882;8.666;2023-05-29T00:35:15;100165.53;;;17.27;47.60
12963;BME280;6546;49.882;8.666;2023-05-29T00:37:41;100159.50;;;17.26;47.45
12963;BME280;6546;49.882;8.666;2023-05-29T00:40:08;100155.25;;;17.19;47.52
12963;BME280;6546;49.882;8.666;2023-05-29T00:42:35;100163.50;;;17.22;47.41
12963;BME280;6546;49.882;8.666;2023-05-29T00:45:03;100154.25;;;17.13;47.03
12963;BME280;6546;49.882;8.666;2023-05-29T00:47:31;100150.25;;;17.11;47.32
12963;BME280;6546;49.882;8.666;2023-05-29T00:49:57;100144.03;;;17.05;47.51
12963;BME280;6546;49.882;8.666;2023-05-29T00:52:24;100157.28;;;17.04;47.53
12963;BME280;6546;49.882;8.666;2023-05-29T00:54:52;100154.25;;;17.07;47.35
12963;BME280;6546;49.882;8.666;2023-05-29T00:57:19;100147.81;;;17.09;47.58
12963;BME280;6546;49.882;8.666;2023-05-29T00:59:47;100147.81;;;17.03;47.47
12963;BME280;6546;49.882;8.666;2023-05-29T01:02:16;100150.44;;;17.03;47.81
12963;BME280;6546;49.882;8.666;2023-05-29T01:04:44;100153.84;;;17.10;46.85
12963;BME280;6546;49.882;8.666;2023-05-29T01:07:11;100152.28;;;17.02;47.22
12963;BME280;6546;49.882;8.666;2023-05-29T01:09:39;100145.41;;;16.95;47.18
12963;BME280;6546;49.882;8.666;2023-05-29T01:12:16;100143.81;;;17.00;47.50
12963;BME280;6546;49.882;8.666;2023-05-29T01:14:58;100146.63;;;16.92;47.62
12963;BME280;6546;49.882;8.666;2023-05-29T01:17:37;100143.00;;;16.87;48.10
12963;BME280;6546;49.882;8.666;2023-05-29T01:20:23;100141.81;;;16.83;48.40
12963;BME280;6546;49.882;8.666;2023-05-29T01:26:21;100142.19;;;16.79;48.00
12963;BME280;6546;49.882;8.666;2023-05-29T01:28:55;100140.38;;;16.73;48.32
12963;BME280;6546;49.882;8.666;2023-05-29T01:31:24;100141.16;;;16.67;48.69
12963;BME280;6546;49.882;8.666;2023-05-29T01:33:52;100141.38;;;16.66;48.22
12963;BME280;6546;49.882;8.666;2023-05-29T01:36:19;100135.16;;;16.60;48.55
12963;BME280;6546;49.882;8.666;2023-05-29T01:38:45;100141.13;;;16.54;48.60
12963;BME280;6546;49.882;8.666;2023-05-29T01:41:12;100130.66;;;16.54;48.85
12963;BME280;6546;49.882;8.666;2023-05-29T01:43:40;100138.13;;;16.51;49.25
12963;BME280;6546;49.882;8.666;2023-05-29T01:46:09;100130.66;;;16.41;48.79
12963;BME280;6546;49.882;8.666;2023-05-29T01:48:36;100138.13;;;16.51;49.02
12963;BME280;6546;49.882;8.666;2023-05-29T01:51:03;100139.69;;;16.52;48.99
12963;BME280;6546;49.882;8.666;2023-05-29T01:53:30;100134.06;;;16.48;48.87
12963;BME280;6546;49.882;8.666;2023-05-29T01:55:57;100145.97;;;16.51;48.88
12963;BME280;6546;49.882;8.666;2023-05-29T01:58:25;100141.31;;;16.46;48.86
12963;BME280;6546;49.882;8.666;2023-05-29T02:00:52;100140.50;;;16.39;49.49
12963;BME280;6546;49.882;8.666;2023-05-29T02:03:20;100140.31;;;16.41;49.68
12963;BME280;6546;49.882;8.666;2023-05-29T02:05:46;100138.50;;;16.41;49.96
12963;BME280;6546;49.882;8.666;2023-05-29T02:08:13;100143.50;;;16.36;49.69
12963;BME280;6546;49.882;8.666;2023-05-29T02:10:40;100143.47;;;16.23;49.74
12963;BME280;6546;49.882;8.666;2023-05-29T02:13:06;100138.47;;;16.28;50.03
12963;BME280;6546;49.882;8.666;2023-05-29T02:15:33;100129.19;;;16.25;49.69
12963;BME280;6546;49.882;8.666;2023-05-29T02:17:59;100128.41;;;16.25;49.35
12963;BME280;6546;49.882;8.666;2023-05-29T02:20:28;100124.34;;;16.22;49.46
12963;BME280;6546;49.882;8.666;2023-05-29T02:22:55;100125.00;;;16.24;49.67
12963;BME280;6546;49.882;8.666;2023-05-29T02:25:21;100130.00;;;16.26;49.63
12963;BME280;6546;49.882;8.666;2023-05-29T02:27:48;100131.03;;;16.25;49.78
12963;BME280;6546;49.882;8.666;2023-05-29T02:30:14;100117.53;;;16.15;49.71
12963;BME280;6546;49.882;8.666;2023-05-29T02:32:41;100124.31;;;16.09;49.85
12963;BME280;6546;49.882;8.666;2023-05-29T02:35:08;100136.59;;;16.09;49.50
12963;BME280;6546;49.882;8.666;2023-05-29T02:37:36;100133.22;;;16.21;49.75
12963;BME280;6546;49.882;8.666;2023-05-29T02:40:02;100131.03;;;16.25;49.61
12963;BME280;6546;49.882;8.666;2023-05-29T02:42:29;100131.59;;;16.14;49.74
12963;BME280;6546;49.882;8.666;2023-05-29T02:44:55;100134.59;;;16.11;49.98
12963;BME280;6546;49.882;8.666;2023-05-29T02:47:22;100142.81;;;16.08;50.19
12963;BME280;6546;49.882;8.666;2023-05-29T02:49:48;100133.19;;;16.08;50.22
12963;BME280;6546;49.882;8.666;2023-05-29T02:52:15;100135.13;;;16.00;50.64
12963;BME280;6546;49.882;8.666;2023-05-29T02:54:43;100134.34;;;16.06;50.22
12963;BME280;6546;49.882;8.666;2023-05-29T02:57:09;100133.56;;;16.05;50.16
12963;BME280;6546;49.882;8.666;2023-05-29T02:59:36;100132.75;;;16.05;50.57
12963;BME280;6546;49.882;8.666;2023-05-29T03:02:03;100130.72;;;16.00;50.88
12963;BME280;6546;49.882;8.666;2023-05-29T03:04:30;100131.13;;;15.97;51.01
12963;BME280;6546;49.882;8.666;2023-05-29T03:06:56;100133.47;;;15.79;51.37
12963;BME280;6546;49.882;8.666;2023-05-29T03:09:23;100145.72;;;15.85;51.74
12963;BME280;6546;49.882;8.666;2023-05-29T03:11:51;100154.75;;;15.83;52.02
12963;BME280;6546;49.882;8.666;2023-05-29T03:14:18;100154.75;;;15.83;52.03
12963;BME280;6546;49.882;8.666;2023-05-29T03:16:46;100144.69;;;15.73;52.40
12963;BME280;6546;49.882;8.666;2023-05-29T03:19:14;100142.09;;;15.80;52.44
12963;BME280;6546;49.882;8.666;2023-05-29T03:21:41;100140.41;;;15.65;52.99
12963;BME280;6546;49.882;8.666;2023-05-29T03:24:07;100140.63;;;15.70;52.90
12963;BME280;6546;49.882;8.666;2023-05-29T03:26:34;100137.41;;;15.68;53.11
12963;BME280;6546;49.882;8.666;2023-05-29T03:29:03;100134.81;;;15.68;53.13
12963;BME280;6546;49.882;8.666;2023-05-29T03:31:30;100143.09;;;15.79;52.71
12963;BME280;6546;49.882;8.666;2023-05-29T03:33:57;100143.66;;;15.74;52.43
12963;BME280;6546;49.882;8.666;2023-05-29T03:36:24;100151.09;;;15.77;52.25
12963;BME280;6546;49.882;8.666;2023-05-29T03:38:52;100153.38;;;15.52;53.21
12963;BME280;6546;49.882;8.666;2023-05-29T03:41:18;100158.34;;;15.47;53.76
12963;BME280;6546;49.882;8.666;2023-05-29T03:43:45;100162.84;;;15.32;54.17
12963;BME280;6546;49.882;8.666;2023-05-29T03:46:13;100174.53;;;15.36;54.61
12963;BME280;6546;49.882;8.666;2023-05-29T03:48:40;100164.59;;;15.25;54.71
12963;BME280;6546;49.882;8.666;2023-05-29T03:51:06;100169.81;;;15.25;54.81
12963;BME280;6546;49.882;8.666;2023-05-29T03:53:33;100162.00;;;15.25;54.98
12963;BME280;6546;49.882;8.666;2023-05-29T03:55:59;100160.63;;;15.29;55.05
12963;BME280;6546;49.882;8.666;2023-05-29T03:58:26;100168.22;;;15.24;55.00
12963;BME280;6546;49.882;8.666;2023-05-29T04:00:53;100167.97;;;15.19;55.41
12963;BME280;6546;49.882;8.666;2023-05-29T04:03:21;100165.25;;;15.27;55.36
12963;BME280;6546;49.882;8.666;2023-05-29T04:05:48;100180.50;;;15.30;55.10
12963;BME280;6546;49.882;8.666;2023-05-29T04:08:15;100185.28;;;15.27;55.10
12963;BME280;6546;49.882;8.666;2023-05-29T04:10:41;100196.91;;;15.24;55.55
12963;BME280;6546;49.882;8.666;2023-05-29T04:13:08;100199.38;;;15.32;55.46
12963;BME280;6546;49.882;8.666;2023-05-29T04:15:35;100196.75;;;15.32;55.36
12963;BME280;6546;49.882;8.666;2023-05-29T04:18:02;100206.66;;;15.37;55.54
12963;BME280;6546;49.882;8.666;2023-05-29T04:20:30;100205.84;;;15.36;55.55
12963;BME280;6546;49.882;8.666;2023-05-29T04:22:57;100201.84;;;15.40;55.40
12963;BME280;6546;49.882;8.666;2023-05-29T04:25:23;100209.88;;;15.39;55.66
12963;BME280;6546;49.882;8.666;2023-05-29T04:27:50;100207.41;;;15.31;56.20
12963;BME280;6546;49.882;8.666;2023-05-29T04:30:17;100208.38;;;15.30;55.74
12963;BME280;6546;49.882;8.666;2023-05-29T04:32:44;100226.16;;;15.41;55.88
12963;BME280;6546;49.882;8.666;2023-05-29T04:35:12;100217.13;;;15.43;55.95
12963;BME280;6546;49.882;8.666;2023-05-29T04:37:39;100228.91;;;15.54;55.71
12963;BME280;6546;49.882;8.666;2023-05-29T04:40:08;100226.69;;;15.57;55.67
12963;BME280;6546;49.882;8.666;2023-05-29T04:42:35;100231.34;;;15.62;55.50
12963;BME280;6546;49.882;8.666;2023-05-29T04:45:02;100237.81;;;15.66;55.21
12963;BME280;6546;49.882;8.666;2023-05-29T04:47:30;100243.06;;;15.72;55.45
12963;BME280;6546;49.882;8.666;2023-05-29T04:49:58;100240.63;;;15.71;55.51
12963;BME280;6546;49.882;8.666;2023-05-29T04:52:25;100241.31;;;15.80;55.53
12963;BME280;6546;49.882;8.666;2023-05-29T04:54:53;100252.75;;;15.79;55.07
12963;BME280;6546;49.882;8.666;2023-05-29T04:57:20;100257.53;;;15.75;55.64
12963;BME280;6546;49.882;8.666;2023-05-29T04:59:46;100261.44;;;15.86;54.83
12963;BME280;6546;49.882;8.666;2023-05-29T05:02:13;100261.66;;;15.91;55.46
12963;BME280;6546;49.882;8.666;2023-05-29T05:04:39;100254.66;;;15.98;55.15
12963;BME280;6546;49.882;8.666;2023-05-29T05:07:08;100258.06;;;15.92;55.39
12963;BME280;6546;49.882;8.666;2023-05-29T05:09:35;100256.47;;;15.97;55.43
12963;BME280;6546;49.882;8.666;2023-05-29T05:12:03;100262.59;;;16.11;55.08
12963;BME280;6546;49.882;8.666;2023-05-29T05:14:31;100263.81;;;16.15;54.41
12963;BME280;6546;49.882;8.666;2023-05-29T05:16:57;100270.03;;;16.14;54.33
12963;BME280;6546;49.882;8.666;2023-05-29T05:19:24;100275.09;;;16.22;54.43
12963;BME280;6546;49.882;8.666;2023-05-29T05:21:50;100265.09;;;16.32;54.02
12963;BME280;6546;49.882;8.666;2023-05-29T05:24:17;100273.38;;;16.42;54.18
12963;BME280;6546;49.882;8.666;2023-05-29T05:26:43;100269.97;;;16.48;53.72
12963;BME280;6546;49.882;8.666;2023-05-29T05:29:11;100278.69;;;16.55;53.64
12963;BME280;6546;49.882;8.666;2023-05-29T05:31:38;100273.00;;;16.45;53.57
12963;BME280;6546;49.882;8.666;2023-05-29T05:34:05;100273.72;;;16.60;53.36
12963;BME280;6546;49.882;8.666;2023-05-29T05:36:31;100280.25;;;17.17;52.36
12963;BME280;6546;49.882;8.666;2023-05-29T05:38:58;100275.06;;;17.76;49.68
12963;BME280;6546;49.882;8.666;2023-05-29T05:41:25;100282.72;;;17.77;49.41
12963;BME280;6546;49.882;8.666;2023-05-29T05:43:52;100279.88;;;17.46;50.89
12963;BME280;6546;49.882;8.666;2023-05-29T05:46:19;100285.13;;;17.33;51.16
12963;BME280;6546;49.882;8.666;2023-05-29T05:48:46;100283.50;;;17.39;50.96
12963;BME280;6546;49.882;8.666;2023-05-29T05:51:13;100282.50;;;17.33;51.09
12963;BME280;6546;49.882;8.666;2023-05-29T05:53:39;100287.56;;;17.54;50.57
12963;BME280;6546;49.882;8.666;2023-05-29T05:56:06;100282.09;;;17.89;50.61
12963;BME280;6546;49.882;8.666;2023-05-29T05:58:32;100295.91;;;18.42;48.49
12963;BME280;6546;49.882;8.666;2023-05-29T06:00:59;100297.44;;;19.00;47.43
12963;BME280;6546;49.882;8.666;2023-05-29T06:03:27;100297.56;;;19.18;47.14
12963;BME280;6546;49.882;8.666;2023-05-29T06:05:54;100296.28;;;19.27;46.71
12963;BME280;6546;49.882;8.666;2023-05-29T06:08:20;100300.13;;;19.56;45.31
12963;BME280;6546;49.882;8.666;2023-05-29T06:10:47;100298.41;;;20.95;41.44
12963;BME280;6546;49.882;8.666;2023-05-29T06:13:14;100297.88;;;22.79;37.27
12963;BME280;6546;49.882;8.666;2023-05-29T06:15:42;100298.53;;;24.63;33.92
12963;BME280;6546;49.882;8.666;2023-05-29T06:18:08;100302.94;;;26.63;30.26
12963;BME280;6546;49.882;8.666;2023-05-29T06:20:36;100305.69;;;27.24;28.19
12963;BME280;6546;49.882;8.666;2023-05-29T06:23:03;100310.16;;;27.99;27.52
12963;BME280;6546;49.882;8.666;2023-05-29T06:25:29;100309.00;;;28.36;26.30
12963;BME280;6546;49.882;8.666;2023-05-29T06:27:58;100315.16;;;29.58;24.85
12963;BME280;6546;49.882;8.666;2023-05-29T06:30:25;100312.34;;;30.68;23.39
12963;BME280;6546;49.882;8.666;2023-05-29T06:32:51;100311.66;;;31.32;22.07
12963;BME280;6546;49.882;8.666;2023-05-29T06:35:18;100310.63;;;31.14;22.19
12963;BME280;6546;49.882;8.666;2023-05-29T06:37:46;100315.81;;;31.70;21.62
12963;BME280;6546;49.882;8.666;2023-05-29T06:40:13;100309.59;;;31.43;21.77
12963;BME280;6546;49.882;8.666;2023-05-29T06:42:40;100299.31;;;31.17;21.82
12963;BME280;6546;49.882;8.666;2023-05-29T06:45:10;100309.88;;;30.90;22.50
12963;BME280;6546;49.882;8.666;2023-05-29T06:47:36;100305.88;;;31.25;22.05
12963;BME280;6546;49.882;8.666;2023-05-29T06:50:04;100304.75;;;30.75;22.57
12963;BME280;6546;49.882;8.666;2023-05-29T06:52:30;100306.47;;;29.08;24.58
12963;BME280;6546;49.882;8.666;2023-05-29T06:54:58;100302.66;;;28.81;25.18
12963;BME280;6546;49.882;8.666;2023-05-29T06:57:26;100295.66;;;28.41;26.18
12963;BME280;6546;49.882;8.666;2023-05-29T06:59:52;100293.06;;;28.26;26.31
12963;BME280;6546;49.882;8.666;2023-05-29T07:02:19;100300.25;;;28.84;25.67
12963;BME280;6546;49.882;8.666;2023-05-29T07:04:46;100305.91;;;29.11;26.23
12963;BME280;6546;49.882;8.666;2023-05-29T07:07:12;100310.47;;;28.72;25.90
12963;BME280;6546;49.882;8.666;2023-05-29T07:09:39;100310.47;;;27.88;26.61
12963;BME280;6546;49.882;8.666;2023-05-29T07:12:07;100315.81;;;27.73;26.67
12963;BME280;6546;49.882;8.666;2023-05-29T07:14:34;100321.41;;;27.36;27.60
12963;BME280;6546;49.882;8.666;2023-05-29T07:17:00;100315.03;;;26.29;28.82
12963;BME280;6546;49.882;8.666;2023-05-29T07:19:27;100307.38;;;25.54;29.87
12963;BME280;6546;49.882;8.666;2023-05-29T07:21:54;100310.31;;;25.57;29.94
12963;BME280;6546;49.882;8.666;2023-05-29T07:24:21;100314.69;;;25.10;31.70
12963;BME280;6546;49.882;8.666;2023-05-29T07:26:47;100310.13;;;25.05;31.45
12963;BME280;6546;49.882;8.666;2023-05-29T07:29:16;100311.06;;;25.21;31.83
12963;BME280;6546;49.882;8.666;2023-05-29T07:31:46;100314.19;;;24.86;31.11
12963;BME280;6546;49.882;8.666;2023-05-29T07:34:12;100308.41;;;24.24;31.98
12963;BME280;6546;49.882;8.666;2023-05-29T07:36:56;100306.81;;;24.07;32.72
12963;BME280;6546;49.882;8.666;2023-05-29T07:39:23;100317.56;;;24.17;33.06
12963;BME280;6546;49.882;8.666;2023-05-29T07:41:52;100321.56;;;24.02;33.24
12963;BME280;6546;49.882;8.666;2023-05-29T07:44:20;100319.28;;;23.89;32.92
12963;BME280;6546;49.882;8.666;2023-05-29T07:46:46;100313.69;;;24.08;33.86
12963;BME280;6546;49.882;8.666;2023-05-29T07:49:13;100320.06;;;24.07;32.25
12963;BME280;6546;49.882;8.666;2023-05-29T07:51:40;100332.38;;;24.01;32.55
12963;BME280;6546;49.882;8.666;2023-05-29T07:54:06;100332.06;;;23.97;32.73
12963;BME280;6546;49.882;8.666;2023-05-29T07:56:33;100328.25;;;23.88;33.10
12963;BME280;6546;49.882;8.666;2023-05-29T07:59:00;100331.91;;;24.04;33.13
12963;BME280;6546;49.882;8.666;2023-05-29T08:01:28;100332.50;;;23.89;33.01
12963;BME280;6546;49.882;8.666;2023-05-29T08:03:54;100320.09;;;23.57;33.81
12963;BME280;6546;49.882;8.666;2023-05-29T08:06:21;100331.78;;;23.61;33.66
12963;BME280;6546;49.882;8.666;2023-05-29T08:08:47;100325.06;;;23.53;33.94
12963;BME280;6546;49.882;8.666;2023-05-29T08:11:14;100333.25;;;23.51;34.34
12963;BME280;6546;49.882;8.666;2023-05-29T08:13:40;100316.41;;;23.58;34.26
12963;BME280;6546;49.882;8.666;2023-05-29T08:16:07;100334.28;;;23.67;33.92
12963;BME280;6546;49.882;8.666;2023-05-29T08:18:35;100332.50;;;23.56;34.28
12963;BME280;6546;49.882;8.666;2023-05-29T08:21:02;100337.78;;;23.56;33.85
12963;BME280;6546;49.882;8.666;2023-05-29T08:23:29;100342.59;;;23.59;34.56
12963;BME280;6546;49.882;8.666;2023-05-29T08:25:57;100334.13;;;23.57;33.81
12963;BME280;6546;49.882;8.666;2023-05-29T08:28:23;100334.44;;;23.61;33.51
12963;BME280;6546;49.882;8.666;2023-05-29T08:30:51;100333.25;;;23.68;33.47
12963;BME280;6546;49.882;8.666;2023-05-29T08:33:18;100331.38;;;23.69;33.94
12963;BME280;6546;49.882;8.666;2023-05-29T08:35:46;100330.34;;;23.70;33.60
12963;BME280;6546;49.882;8.666;2023-05-29T08:38:13;100326.31;;;24.00;33.65
12963;BME280;6546;49.882;8.666;2023-05-29T08:40:39;100322.44;;;24.25;34.08
12963;BME280;6546;49.882;8.666;2023-05-29T08:43:10;100319.16;;;24.18;33.29
12963;BME280;6546;49.882;8.666;2023-05-29T08:45:42;100336.72;;;24.07;33.20
12963;BME280;6546;49.882;8.666;2023-05-29T08:48:09;100329.22;;;23.82;33.77
12963;BME280;6546;49.882;8.666;2023-05-29T08:50:38;100339.94;;;23.92;33.48
12963;BME280;6546;49.882;8.666;2023-05-29T08:53:09;100335.63;;;23.70;33.34
12963;BME280;6546;49.882;8.666;2023-05-29T08:55:36;100327.03;;;23.96;32.94
12963;BME280;6546;49.882;8.666;2023-05-29T08:58:04;100318.16;;;24.24;33.59
12963;BME280;6546;49.882;8.666;2023-05-29T09:00:31;100322.78;;;24.33;32.62
12963;BME280;6546;49.882;8.666;2023-05-29T09:02:59;100318.50;;;24.49;32.70
12963;BME280;6546;49.882;8.666;2023-05-29T09:05:26;100318.97;;;24.46;32.15
12963;BME280;6546;49.882;8.666;2023-05-29T09:07:53;100319.41;;;24.16;32.29
12963;BME280;6546;49.882;8.666;2023-05-29T09:10:21;100326.38;;;24.44;32.52
12963;BME280;6546;49.882;8.666;2023-05-29T09:12:48;100326.53;;;24.59;32.37
12963;BME280;6546;49.882;8.666;2023-05-29T09:15:17;100318.97;;;24.46;31.87
12963;BME280;6546;49.882;8.666;2023-05-29T09:17:49;100312.69;;;24.30;32.57
12963;BME280;6546;49.882;8.666;2023-05-29T09:20:17;100317.03;;;24.58;31.32
12963;BME280;6546;49.882;8.666;2023-05-29T09:22:52;100323.97;;;24.64;32.36
12963;BME280;6546;49.882;8.666;2023-05-29T09:25:22;100316.44;;;24.99;32.05
12963;BME280;6546;49.882;8.666;2023-05-29T09:27:51;100311.44;;;25.03;31.63
12963;BME280;6546;49.882;8.666;2023-05-29T09:30:31;100316.66;;;24.98;32.02
12963;BME280;6546;49.882;8.666;2023-05-29T09:32:59;100318.16;;;24.89;31.53
12963;BME280;6546;49.882;8.666;2023-05-29T09:35:31;100320.75;;;25.11;32.13
12963;BME280;6546;49.882;8.666;2023-05-29T09:37:58;100311.44;;;25.35;32.14
12963;BME280;6546;49.882;8.666;2023-05-29T09:40:26;100319.91;;;25.32;31.48
12963;BME280;6546;49.882;8.666;2023-05-29T09:42:55;100318.91;;;25.11;31.43
12963;BME280;6546;49.882;8.666;2023-05-29T09:45:22;100310.75;;;25.18;31.40
12963;BME280;6546;49.882;8.666;2023-05-29T09:47:50;100304.22;;;25.25;30.60
12963;BME280;6546;49.882;8.666;2023-05-29T09:50:18;100316.31;;;25.16;30.64
12963;BME280;6546;49.882;8.666;2023-05-29T09:52:46;100324.16;;;25.33;30.60
12963;BME280;6546;49.882;8.666;2023-05-29T09:55:19;100315.00;;;25.14;30.88
12963;BME280;6546;49.882;8.666;2023-05-29T09:57:48;100322.44;;;24.90;31.38
12963;BME280;6546;49.882;8.666;2023-05-29T10:00:15;100314.22;;;24.91;32.03
12963;BME280;6546;49.882;8.666;2023-05-29T10:02:43;100308.16;;;25.23;31.37
12963;BME280;6546;49.882;8.666;2023-05-29T10:05:10;100308.81;;;25.40;30.67
12963;BME280;6546;49.882;8.666;2023-05-29T10:07:43;100297.66;;;25.33;30.54
12963;BME280;6546;49.882;8.666;2023-05-29T10:10:12;100307.66;;;25.26;31.16
12963;BME280;6546;49.882;8.666;2023-05-29T10:12:42;100302.28;;;25.16;30.52
12963;BME280;6546;49.882;8.666;2023-05-29T10:15:13;100294.03;;;25.12;30.30
12963;BME280;6546;49.882;8.666;2023-05-29T10:17:47;100304.84;;;25.11;30.65
12963;BME280;6546;49.882;8.666;2023-05-29T10:20:17;100304.13;;;24.88;31.70
12963;BME280;6546;49.882;8.666;2023-05-29T10:22:46;100294.19;;;25.00;31.50
12963;BME280;6546;49.882;8.666;2023-05-29T10:25:14;100299.84;;;25.14;31.43
12963;BME280;6546;49.882;8.666;2023-05-29T10:27:44;100291.88;;;25.41;31.82
12963;BME280;6546;49.882;8.666;2023-05-29T10:30:19;100300.88;;;25.40;31.05
12963;BME280;6546;49.882;8.666;2023-05-29T10:33:04;100288.41;;;25.08;31.54
12963;BME280;6546;49.882;8.666;2023-05-29T10:35:40;100296.13;;;24.83;32.01
12963;BME280;6546;49.882;8.666;2023-05-29T10:38:12;100282.78;;;24.78;32.19
12963;BME280;6546;49.882;8.666;2023-05-29T10:40:40;100285.97;;;25.02;32.33
12963;BME280;6546;49.882;8.666;2023-05-29T10:43:07;100284.97;;;25.08;32.41
12963;BME280;6546;49.882;8.666;2023-05-29T10:45:51;100290.78;;;25.05;31.96
12963;BME280;6546;49.882;8.666;2023-05-29T10:48:40;100280.56;;;25.19;32.03
12963;BME280;6546;49.882;8.666;2023-05-29T10:51:08;100289.53;;;25.13;31.32
12963;BME280;6546;49.882;8.666;2023-05-29T10:53:49;100267.69;;;25.00;32.26
12963;BME280;6546;49.882;8.666;2023-05-29T10:56:21;100291.25;;;24.97;32.88
12963;BME280;6546;49.882;8.666;2023-05-29T10:58:52;100288.47;;;25.14;31.24
12963;BME280;6546;49.882;8.666;2023-05-29T11:01:22;100295.88;;;25.43;30.39
12963;BME280;6546;49.882;8.666;2023-05-29T11:03:50;100279.19;;;25.48;31.57
12963;BME280;6546;49.882;8.666;2023-05-29T11:06:19;100297.97;;;25.41;31.72
12963;BME280;6546;49.882;8.666;2023-05-29T11:08:46;100289.97;;;25.04;32.19
12963;BME280;6546;49.882;8.666;2023-05-29T11:11:14;100285.38;;;24.95;32.41
12963;BME280;6546;49.882;8.666;2023-05-29T11:13:51;100283.91;;;25.04;32.26
12963;BME280;6546;49.882;8.666;2023-05-29T11:16:35;100284.13;;;25.02;32.00
12963;BME280;6546;49.882;8.666;2023-05-29T11:19:04;100271.16;;;24.79;31.96
12963;BME280;6546;49.882;8.666;2023-05-29T11:21:34;100267.47;;;24.80;31.21
12963;BME280;6546;49.882;8.666;2023-05-29T11:24:04;100273.13;;;24.89;31.17
12963;BME280;6546;49.882;8.666;2023-05-29T11:26:32;100263.53;;;25.10;30.91
12963;BME280;6546;49.882;8.666;2023-05-29T11:28:59;100275.25;;;25.19;29.97
12963;BME280;6546;49.882;8.666;2023-05-29T11:31:31;100265.47;;;25.19;29.29
12963;BME280;6546;49.882;8.666;2023-05-29T11:33:59;100266.25;;;25.20;29.45
12963;BME280;6546;49.882;8.666;2023-05-29T11:36:28;100258.75;;;25.12;28.81
12963;BME280;6546;49.882;8.666;2023-05-29T11:38:55;100255.56;;;25.10;28.94
12963;BME280;6546;49.882;8.666;2023-05-29T11:41:22;100249.00;;;24.85;27.74
12963;BME280;6546;49.882;8.666;2023-05-29T11:43:59;100263.94;;;24.96;27.43
12963;BME280;6546;49.882;8.666;2023-05-29T11:46:28;100259.53;;;25.07;26.97
12963;BME280;6546;49.882;8.666;2023-05-29T11:48:57;100268.69;;;24.94;26.54
12963;BME280;6546;49.882;8.666;2023-05-29T11:51:24;100254.28;;;24.85;26.70
12963;BME280;6546;49.882;8.666;2023-05-29T11:53:51;100260.19;;;24.92;27.31
12963;BME280;6546;49.882;8.666;2023-05-29T11:56:23;100257.31;;;24.94;27.58
12963;BME280;6546;49.882;8.666;2023-05-29T11:58:50;100271.88;;;24.96;28.68
12963;BME280;6546;49.882;8.666;2023-05-29T12:01:20;100268.13;;;24.92;28.75
12963;BME280;6546;49.882;8.666;2023-05-29T12:03:50;100271.28;;;24.89;28.60
12963;BME280;6546;49.882;8.666;2023-05-29T12:06:30;100260.91;;;24.83;27.30
12963;BME280;6546;49.882;8.666;2023-05-29T12:08:58;100256.63;;;25.08;26.99
12963;BME280;6546;49.882;8.666;2023-05-29T12:11:24;100273.97;;;24.94;28.60
12963;BME280;6546;49.882;8.666;2023-05-29T12:13:55;100267.13;;;24.72;30.49
12963;BME280;6546;49.882;8.666;2023-05-29T12:16:22;100259.47;;;24.48;29.05
12963;BME280;6546;49.882;8.666;2023-05-29T12:18:51;100252.91;;;24.56;29.75
12963;BME280;6546;49.882;8.666;2023-05-29T12:21:17;100249.22;;;24.57;29.29
12963;BME280;6546;49.882;8.666;2023-05-29T12:23:45;100251.91;;;24.62;28.14
12963;BME280;6546;49.882;8.666;2023-05-29T12:26:12;100246.25;;;24.53;27.69
12963;BME280;6546;49.882;8.666;2023-05-29T12:28:42;100247.09;;;24.59;27.10
12963;BME280;6546;49.882;8.666;2023-05-29T12:31:09;100244.56;;;24.69;26.79
12963;BME280;6546;49.882;8.666;2023-05-29T12:33:36;100243.00;;;24.68;27.04
12963;BME280;6546;49.882;8.666;2023-05-29T12:36:12;100240.38;;;24.73;27.06
12963;BME280;6546;49.882;8.666;2023-05-29T12:38:49;100255.72;;;24.98;26.53
12963;BME280;6546;49.882;8.666;2023-05-29T12:41:23;100249.28;;;24.89;26.73
12963;BME280;6546;49.882;8.666;2023-05-29T12:43:52;100248.38;;;25.05;26.44
12963;BME280;6546;49.882;8.666;2023-05-29T12:46:19;100243.16;;;25.15;26.14
12963;BME280;6546;49.882;8.666;2023-05-29T12:48:45;100236.47;;;25.07;26.34
12963;BME280;6546;49.882;8.666;2023-05-29T12:51:13;100239.78;;;24.93;25.68
12963;BME280;6546;49.882;8.666;2023-05-29T12:53:40;100243.69;;;24.85;26.40
12963;BME280;6546;49.882;8.666;2023-05-29T12:56:06;100230.50;;;24.90;27.03
12963;BME280;6546;49.882;8.666;2023-05-29T12:58:33;100232.72;;;24.77;27.02
12963;BME280;6546;49.882;8.666;2023-05-29T13:00:59;100241.09;;;24.90;26.91
12963;BME280;6546;49.882;8.666;2023-05-29T13:03:26;100245.41;;;24.96;26.40
12963;BME280;6546;49.882;8.666;2023-05-29T13:05:53;100239.34;;;24.74;26.45
12963;BME280;6546;49.882;8.666;2023-05-29T13:08:20;100225.22;;;24.69;27.34